sensor_id;sensor_type;location;lat;lon;timestamp;temperature;humidity
52869;DHT22;39100;53.480;6.158;2024-01-07T00:01:49;1.50;99.90
52869;DHT22;39100;53.480;6.158;2024-01-07T00:04:18;1.50;99.90
52869;DHT22;39100;53.480;6.158;2024-01-07T00:06:43;1.50;99.90
52869;DHT22;39100;53.480;6.158;2024-01-07T00:09:11;1.50;99.90
52869;DHT22;39100;53.480;6.158;2024-01-07T00:11:37;1.50;99.90
52869;DHT22;39100;53.480;6.158;2024-01-07T00:14:03;1.40;99.90
52869;DHT22;39100;53.480;6.158;2024-01-07T00:16:29;1.40;99.90
52869;DHT22;39100;53.480;6.158;2024-01-07T00:18:54;1.30;99.90
52869;DHT22;39100;53.480;6.158;2024-01-07T00:21:20;1.40;99.90
52869;DHT22;39100;53.480;6.158;2024-01-07T00:23:45;1.30;99.90
52869;DHT22;39100;53.480;6.158;2024-01-07T00:26:11;1.40;99.90
52869;DHT22;39100;53.480;6.158;2024-01-07T00:28:36;1.30;99.90
52869;DHT22;39100;53.480;6.158;2024-01-07T00:31:02;1.30;99.90
52869;DHT22;39100;53.480;6.158;2024-01-07T00:33:28;1.30;99.90
52869;DHT22;39100;53.480;6.158;2024-01-07T00:35:53;1.30;99.90
52869;DHT22;39100;53.480;6.158;2024-01-07T00:38:19;1.20;99.90
52869;DHT22;39100;53.480;6.158;2024-01-07T00:40:44;1.30;99.90
52869;DHT22;39100;53.480;6.158;2024-01-07T00:43:10;1.20;99.90
52869;DHT22;39100;53.480;6.158;2024-01-07T00:45:36;1.30;99.90
52869;DHT22;39100;53.480;6.158;2024-01-07T00:48:01;1.30;99.90
52869;DHT22;39100;53.480;6.158;2024-01-07T00:50:27;1.30;99.90
52869;DHT22;39100;53.480;6.158;2024-01-07T00:52:52;1.30;99.90
52869;DHT22;39100;53.480;6.158;2024-01-07T00:55:18;1.20;99.90
52869;DHT22;39100;53.480;6.158;2024-01-07T00:57:44;1.20;99.90
52869;DHT22;39100;53.480;6.158;2024-01-07T01:00:09;1.30;99.90
52869;DHT22;39100;53.480;6.158;2024-01-07T01:02:37;1.20;99.90
52869;DHT22;39100;53.480;6.158;2024-01-07T01:05:03;1.20;99.90
52869;DHT22;39100;53.480;6.158;2024-01-07T01:07:28;1.40;99.90
52869;DHT22;39100;53.480;6.158;2024-01-07T01:09:54;1.30;99.90
52869;DHT22;39100;53.480;6.158;2024-01-07T01:12:19;1.20;99.90
52869;DHT22;39100;53.480;6.158;2024-01-07T01:14:45;1.20;99.90
52869;DHT22;39100;53.480;6.158;2024-01-07T01:17:10;1.20;99.90
52869;DHT22;39100;53.480;6.158;2024-01-07T01:19:36;1.10;99.90
52869;DHT22;39100;53.480;6.158;2024-01-07T01:22:01;1.10;99.90
52869;DHT22;39100;53.480;6.158;2024-01-07T01:24:27;1.10;99.90
52869;DHT22;39100;53.480;6.158;2024-01-07T01:26:53;1.10;99.90
52869;DHT22;39100;53.480;6.158;2024-01-07T01:29:18;1.10;99.90
52869;DHT22;39100;53.480;6.158;2024-01-07T01:31:44;1.00;99.90
52869;DHT22;39100;53.480;6.158;2024-01-07T01:34:09;1.10;99.90
52869;DHT22;39100;53.480;6.158;2024-01-07T01:36:35;1.10;99.90
52869;DHT22;39100;53.480;6.158;2024-01-07T01:39:00;1.10;99.90
52869;DHT22;39100;53.480;6.158;2024-01-07T01:41:26;1.10;99.90
52869;DHT22;39100;53.480;6.158;2024-01-07T01:43:51;1.10;99.90
52869;DHT22;39100;53.480;6.158;2024-01-07T01:46:21;1.00;99.90
52869;DHT22;39100;53.480;6.158;2024-01-07T01:48:47;1.00;99.90
52869;DHT22;39100;53.480;6.158;2024-01-07T01:51:12;1.10;99.90
52869;DHT22;39100;53.480;6.158;2024-01-07T01:53:39;1.20;99.90
52869;DHT22;39100;53.480;6.158;2024-01-07T01:56:05;1.20;99.90
52869;DHT22;39100;53.480;6.158;2024-01-07T01:58:32;1.20;99.90
52869;DHT22;39100;53.480;6.158;2024-01-07T02:00:58;1.20;99.90
52869;DHT22;39100;53.480;6.158;2024-01-07T02:03:24;1.30;99.90
52869;DHT22;39100;53.480;6.158;2024-01-07T02:05:52;1.20;99.90
52869;DHT22;39100;53.480;6.158;2024-01-07T02:08:18;1.20;99.90
52869;DHT22;39100;53.480;6.158;2024-01-07T02:10:44;1.20;99.90
52869;DHT22;39100;53.480;6.158;2024-01-07T02:13:10;1.30;99.90
52869;DHT22;39100;53.480;6.158;2024-01-07T02:15:36;1.40;99.90
52869;DHT22;39100;53.480;6.158;2024-01-07T02:18:02;1.30;99.90
52869;DHT22;39100;53.480;6.158;2024-01-07T02:20:28;1.40;99.90
52869;DHT22;39100;53.480;6.158;2024-01-07T02:22:53;1.40;99.90
52869;DHT22;39100;53.480;6.158;2024-01-07T02:25:19;1.40;99.90
52869;DHT22;39100;53.480;6.158;2024-01-07T02:27:44;1.30;99.90
52869;DHT22;39100;53.480;6.158;2024-01-07T02:30:10;1.30;99.90
52869;DHT22;39100;53.480;6.158;2024-01-07T02:32:36;1.30;99.90
52869;DHT22;39100;53.480;6.158;2024-01-07T02:35:03;1.40;99.90
52869;DHT22;39100;53.480;6.158;2024-01-07T02:37:29;1.40;99.90
52869;DHT22;39100;53.480;6.158;2024-01-07T02:39:55;1.40;99.90
52869;DHT22;39100;53.480;6.158;2024-01-07T02:42:20;1.30;99.90
52869;DHT22;39100;53.480;6.158;2024-01-07T02:44:46;1.40;99.90
52869;DHT22;39100;53.480;6.158;2024-01-07T02:47:12;1.30;99.90
52869;DHT22;39100;53.480;6.158;2024-01-07T02:49:37;1.40;99.90
52869;DHT22;39100;53.480;6.158;2024-01-07T02:52:03;1.40;99.90
52869;DHT22;39100;53.480;6.158;2024-01-07T02:54:28;1.40;99.90
52869;DHT22;39100;53.480;6.158;2024-01-07T02:56:54;1.30;99.90
52869;DHT22;39100;53.480;6.158;2024-01-07T02:59:20;1.30;99.90
52869;DHT22;39100;53.480;6.158;2024-01-07T03:01:46;1.30;99.90
52869;DHT22;39100;53.480;6.158;2024-01-07T03:04:14;1.30;99.90
52869;DHT22;39100;53.480;6.158;2024-01-07T03:06:40;1.30;99.90
52869;DHT22;39100;53.480;6.158;2024-01-07T03:09:06;1.30;99.90
52869;DHT22;39100;53.480;6.158;2024-01-07T03:11:32;1.30;99.90
52869;DHT22;39100;53.480;6.158;2024-01-07T03:13:58;1.30;99.90
52869;DHT22;39100;53.480;6.158;2024-01-07T03:16:25;1.20;99.90
52869;DHT22;39100;53.480;6.158;2024-01-07T03:18:51;1.20;99.90
52869;DHT22;39100;53.480;6.158;2024-01-07T03:21:21;1.20;99.90
52869;DHT22;39100;53.480;6.158;2024-01-07T03:23:48;1.20;99.90
52869;DHT22;39100;53.480;6.158;2024-01-07T03:26:15;1.20;99.90
52869;DHT22;39100;53.480;6.158;2024-01-07T03:28:41;1.20;99.90
52869;DHT22;39100;53.480;6.158;2024-01-07T03:31:12;1.20;99.90
52869;DHT22;39100;53.480;6.158;2024-01-07T03:33:38;1.20;99.90
52869;DHT22;39100;53.480;6.158;2024-01-07T03:36:14;1.20;99.90
52869;DHT22;39100;53.480;6.158;2024-01-07T03:38:40;1.30;99.90
52869;DHT22;39100;53.480;6.158;2024-01-07T03:41:06;1.20;99.90
52869;DHT22;39100;53.480;6.158;2024-01-07T03:43:32;1.30;99.90
52869;DHT22;39100;53.480;6.158;2024-01-07T03:45:58;1.30;99.90
52869;DHT22;39100;53.480;6.158;2024-01-07T03:48:24;1.30;99.90
52869;DHT22;39100;53.480;6.158;2024-01-07T03:50:49;1.30;99.90
52869;DHT22;39100;53.480;6.158;2024-01-07T03:53:15;1.30;99.90
52869;DHT22;39100;53.480;6.158;2024-01-07T03:55:41;1.30;99.90
52869;DHT22;39100;53.480;6.158;2024-01-07T03:58:06;1.30;99.90
52869;DHT22;39100;53.480;6.158;2024-01-07T04:00:33;1.30;99.90
52869;DHT22;39100;53.480;6.158;2024-01-07T04:02:59;1.30;99.90
52869;DHT22;39100;53.480;6.158;2024-01-07T04:05:24;1.30;99.90
52869;DHT22;39100;53.480;6.158;2024-01-07T04:07:50;1.40;99.90
52869;DHT22;39100;53.480;6.158;2024-01-07T04:10:18;1.40;99.90
52869;DHT22;39100;53.480;6.158;2024-01-07T04:12:44;1.40;99.90
52869;DHT22;39100;53.480;6.158;2024-01-07T04:15:11;1.30;99.90
52869;DHT22;39100;53.480;6.158;2024-01-07T04:17:37;1.40;99.90
52869;DHT22;39100;53.480;6.158;2024-01-07T04:20:03;1.40;99.90
52869;DHT22;39100;53.480;6.158;2024-01-07T04:22:29;1.30;99.90
52869;DHT22;39100;53.480;6.158;2024-01-07T04:24:54;1.40;99.90
52869;DHT22;39100;53.480;6.158;2024-01-07T04:27:20;1.40;99.90
52869;DHT22;39100;53.480;6.158;2024-01-07T04:29:45;1.30;99.90
52869;DHT22;39100;53.480;6.158;2024-01-07T04:32:11;1.40;99.90
52869;DHT22;39100;53.480;6.158;2024-01-07T04:34:36;1.30;99.90
52869;DHT22;39100;53.480;6.158;2024-01-07T04:37:02;1.30;99.90
52869;DHT22;39100;53.480;6.158;2024-01-07T04:39:28;1.40;99.90
52869;DHT22;39100;53.480;6.158;2024-01-07T04:41:53;1.40;99.90
52869;DHT22;39100;53.480;6.158;2024-01-07T04:44:19;1.50;99.90
52869;DHT22;39100;53.480;6.158;2024-01-07T04:46:45;1.50;99.90
52869;DHT22;39100;53.480;6.158;2024-01-07T04:49:10;1.50;99.90
52869;DHT22;39100;53.480;6.158;2024-01-07T04:51:36;1.40;99.90
52869;DHT22;39100;53.480;6.158;2024-01-07T04:54:04;1.40;99.90
52869;DHT22;39100;53.480;6.158;2024-01-07T04:56:31;1.40;99.90
52869;DHT22;39100;53.480;6.158;2024-01-07T04:58:57;1.50;99.90
52869;DHT22;39100;53.480;6.158;2024-01-07T05:01:22;1.40;99.90
52869;DHT22;39100;53.480;6.158;2024-01-07T05:03:48;1.40;99.90
52869;DHT22;39100;53.480;6.158;2024-01-07T05:06:14;1.50;99.90
52869;DHT22;39100;53.480;6.158;2024-01-07T05:08:41;1.50;99.90
52869;DHT22;39100;53.480;6.158;2024-01-07T05:11:07;1.50;99.90
52869;DHT22;39100;53.480;6.158;2024-01-07T05:13:33;1.50;99.90
52869;DHT22;39100;53.480;6.158;2024-01-07T05:15:58;1.50;99.90
52869;DHT22;39100;53.480;6.158;2024-01-07T05:18:24;1.50;99.90
52869;DHT22;39100;53.480;6.158;2024-01-07T05:20:50;1.50;99.90
52869;DHT22;39100;53.480;6.158;2024-01-07T05:23:17;1.50;99.90
52869;DHT22;39100;53.480;6.158;2024-01-07T05:25:43;1.50;99.90
52869;DHT22;39100;53.480;6.158;2024-01-07T05:28:10;1.60;99.90
52869;DHT22;39100;53.480;6.158;2024-01-07T05:30:35;1.50;99.90
52869;DHT22;39100;53.480;6.158;2024-01-07T05:33:01;1.50;99.90
52869;DHT22;39100;53.480;6.158;2024-01-07T05:35:26;1.60;99.90
52869;DHT22;39100;53.480;6.158;2024-01-07T05:37:52;1.50;99.90
52869;DHT22;39100;53.480;6.158;2024-01-07T05:40:17;1.60;99.90
52869;DHT22;39100;53.480;6.158;2024-01-07T05:42:43;1.60;99.90
52869;DHT22;39100;53.480;6.158;2024-01-07T05:45:09;1.50;99.90
52869;DHT22;39100;53.480;6.158;2024-01-07T05:47:34;1.50;99.90
52869;DHT22;39100;53.480;6.158;2024-01-07T05:50:00;1.60;99.90
52869;DHT22;39100;53.480;6.158;2024-01-07T05:52:26;1.50;99.90
52869;DHT22;39100;53.480;6.158;2024-01-07T05:54:52;1.60;99.90
52869;DHT22;39100;53.480;6.158;2024-01-07T05:57:17;1.60;99.90
52869;DHT22;39100;53.480;6.158;2024-01-07T05:59:44;1.50;99.90
52869;DHT22;39100;53.480;6.158;2024-01-07T06:02:09;1.50;99.90
52869;DHT22;39100;53.480;6.158;2024-01-07T06:04:36;1.50;99.90
52869;DHT22;39100;53.480;6.158;2024-01-07T06:07:02;1.50;99.90
52869;DHT22;39100;53.480;6.158;2024-01-07T06:09:28;1.50;99.90
52869;DHT22;39100;53.480;6.158;2024-01-07T06:11:53;1.50;99.90
52869;DHT22;39100;53.480;6.158;2024-01-07T06:14:19;1.50;99.90
52869;DHT22;39100;53.480;6.158;2024-01-07T06:16:45;1.50;99.90
52869;DHT22;39100;53.480;6.158;2024-01-07T06:19:10;1.50;99.90
52869;DHT22;39100;53.480;6.158;2024-01-07T06:21:36;1.40;99.90
52869;DHT22;39100;53.480;6.158;2024-01-07T06:24:01;1.50;99.90
52869;DHT22;39100;53.480;6.158;2024-01-07T06:26:27;1.50;99.90
52869;DHT22;39100;53.480;6.158;2024-01-07T06:28:52;1.50;99.90
52869;DHT22;39100;53.480;6.158;2024-01-07T06:31:18;1.50;99.90
52869;DHT22;39100;53.480;6.158;2024-01-07T06:33:43;1.40;99.90
52869;DHT22;39100;53.480;6.158;2024-01-07T06:36:09;1.40;99.90
52869;DHT22;39100;53.480;6.158;2024-01-07T06:38:35;1.50;99.90
52869;DHT22;39100;53.480;6.158;2024-01-07T06:41:00;1.40;99.90
52869;DHT22;39100;53.480;6.158;2024-01-07T06:43:29;1.40;99.90
52869;DHT22;39100;53.480;6.158;2024-01-07T06:45:55;1.40;99.90
52869;DHT22;39100;53.480;6.158;2024-01-07T06:48:20;1.50;99.90
52869;DHT22;39100;53.480;6.158;2024-01-07T06:50:46;1.40;99.90
52869;DHT22;39100;53.480;6.158;2024-01-07T06:53:11;1.50;99.90
52869;DHT22;39100;53.480;6.158;2024-01-07T06:55:37;1.40;99.90
52869;DHT22;39100;53.480;6.158;2024-01-07T06:58:03;1.40;99.90
52869;DHT22;39100;53.480;6.158;2024-01-07T07:00:28;1.50;99.90
52869;DHT22;39100;53.480;6.158;2024-01-07T07:02:54;1.40;99.90
52869;DHT22;39100;53.480;6.158;2024-01-07T07:05:19;1.40;99.90
52869;DHT22;39100;53.480;6.158;2024-01-07T07:07:45;1.30;99.90
52869;DHT22;39100;53.480;6.158;2024-01-07T07:10:11;1.40;99.90
52869;DHT22;39100;53.480;6.158;2024-01-07T07:12:36;1.40;99.90
52869;DHT22;39100;53.480;6.158;2024-01-07T07:15:02;1.30;99.90
52869;DHT22;39100;53.480;6.158;2024-01-07T07:17:28;1.40;99.90
52869;DHT22;39100;53.480;6.158;2024-01-07T07:19:53;1.30;99.90
52869;DHT22;39100;53.480;6.158;2024-01-07T07:22:19;1.30;99.90
52869;DHT22;39100;53.480;6.158;2024-01-07T07:24:44;1.30;99.90
52869;DHT22;39100;53.480;6.158;2024-01-07T07:27:10;1.30;99.90
52869;DHT22;39100;53.480;6.158;2024-01-07T07:29:36;1.30;99.90
52869;DHT22;39100;53.480;6.158;2024-01-07T07:32:01;1.30;99.90
52869;DHT22;39100;53.480;6.158;2024-01-07T07:34:27;1.40;99.90
52869;DHT22;39100;53.480;6.158;2024-01-07T07:36:52;1.40;99.90
52869;DHT22;39100;53.480;6.158;2024-01-07T07:39:18;1.40;99.90
52869;DHT22;39100;53.480;6.158;2024-01-07T07:41:44;1.40;99.90
52869;DHT22;39100;53.480;6.158;2024-01-07T07:44:09;1.50;99.90
52869;DHT22;39100;53.480;6.158;2024-01-07T07:46:35;1.40;99.90
52869;DHT22;39100;53.480;6.158;2024-01-07T07:49:00;1.50;99.90
52869;DHT22;39100;53.480;6.158;2024-01-07T07:51:29;1.50;99.90
52869;DHT22;39100;53.480;6.158;2024-01-07T07:53:55;1.40;99.90
52869;DHT22;39100;53.480;6.158;2024-01-07T07:56:21;1.40;99.90
52869;DHT22;39100;53.480;6.158;2024-01-07T07:58:46;1.50;99.90
52869;DHT22;39100;53.480;6.158;2024-01-07T08:01:12;1.40;99.90
52869;DHT22;39100;53.480;6.158;2024-01-07T08:03:37;1.50;99.90
52869;DHT22;39100;53.480;6.158;2024-01-07T08:06:03;1.40;99.90
52869;DHT22;39100;53.480;6.158;2024-01-07T08:08:29;1.50;99.90
52869;DHT22;39100;53.480;6.158;2024-01-07T08:10:55;1.50;99.90
52869;DHT22;39100;53.480;6.158;2024-01-07T08:13:20;1.60;99.90
52869;DHT22;39100;53.480;6.158;2024-01-07T08:15:46;1.50;99.90
52869;DHT22;39100;53.480;6.158;2024-01-07T08:18:13;1.60;99.90
52869;DHT22;39100;53.480;6.158;2024-01-07T08:20:38;1.60;99.90
52869;DHT22;39100;53.480;6.158;2024-01-07T08:23:04;1.60;99.90
52869;DHT22;39100;53.480;6.158;2024-01-07T08:25:30;1.60;99.90
52869;DHT22;39100;53.480;6.158;2024-01-07T08:27:55;1.60;99.90
52869;DHT22;39100;53.480;6.158;2024-01-07T08:30:21;1.70;99.90
52869;DHT22;39100;53.480;6.158;2024-01-07T08:32:46;1.70;99.90
52869;DHT22;39100;53.480;6.158;2024-01-07T08:35:12;1.70;99.90
52869;DHT22;39100;53.480;6.158;2024-01-07T08:37:38;2.20;99.90
52869;DHT22;39100;53.480;6.158;2024-01-07T08:40:03;1.70;99.90
52869;DHT22;39100;53.480;6.158;2024-01-07T08:42:29;1.70;99.90
52869;DHT22;39100;53.480;6.158;2024-01-07T08:44:56;1.80;99.90
52869;DHT22;39100;53.480;6.158;2024-01-07T08:47:22;1.70;99.90
52869;DHT22;39100;53.480;6.158;2024-01-07T08:49:47;1.80;99.90
52869;DHT22;39100;53.480;6.158;2024-01-07T08:52:13;1.80;99.90
52869;DHT22;39100;53.480;6.158;2024-01-07T08:54:38;1.80;99.90
52869;DHT22;39100;53.480;6.158;2024-01-07T08:57:04;1.90;99.90
52869;DHT22;39100;53.480;6.158;2024-01-07T08:59:29;1.90;99.90
52869;DHT22;39100;53.480;6.158;2024-01-07T09:01:55;1.90;99.90
52869;DHT22;39100;53.480;6.158;2024-01-07T09:04:20;1.90;99.90
52869;DHT22;39100;53.480;6.158;2024-01-07T09:06:47;1.90;99.90
52869;DHT22;39100;53.480;6.158;2024-01-07T09:09:12;1.90;99.90
52869;DHT22;39100;53.480;6.158;2024-01-07T09:11:38;2.00;99.90
52869;DHT22;39100;53.480;6.158;2024-01-07T09:14:04;2.00;99.90
52869;DHT22;39100;53.480;6.158;2024-01-07T09:16:30;2.00;99.90
52869;DHT22;39100;53.480;6.158;2024-01-07T09:18:55;2.10;99.90
52869;DHT22;39100;53.480;6.158;2024-01-07T09:21:21;2.10;99.90
52869;DHT22;39100;53.480;6.158;2024-01-07T09:23:48;2.10;99.90
52869;DHT22;39100;53.480;6.158;2024-01-07T09:26:14;2.10;99.90
52869;DHT22;39100;53.480;6.158;2024-01-07T09:28:39;2.10;99.90
52869;DHT22;39100;53.480;6.158;2024-01-07T09:31:05;2.10;99.90
52869;DHT22;39100;53.480;6.158;2024-01-07T09:33:31;2.10;99.90
52869;DHT22;39100;53.480;6.158;2024-01-07T09:35:57;2.10;99.90
52869;DHT22;39100;53.480;6.158;2024-01-07T09:38:22;2.10;99.90
52869;DHT22;39100;53.480;6.158;2024-01-07T09:40:50;2.20;99.90
52869;DHT22;39100;53.480;6.158;2024-01-07T09:43:16;2.20;99.90
52869;DHT22;39100;53.480;6.158;2024-01-07T09:45:42;2.40;99.90
52869;DHT22;39100;53.480;6.158;2024-01-07T09:48:11;2.40;99.90
52869;DHT22;39100;53.480;6.158;2024-01-07T09:50:36;2.40;99.90
52869;DHT22;39100;53.480;6.158;2024-01-07T09:53:02;2.50;99.90
52869;DHT22;39100;53.480;6.158;2024-01-07T09:55:40;2.70;99.90
52869;DHT22;39100;53.480;6.158;2024-01-07T09:58:07;2.70;99.90
52869;DHT22;39100;53.480;6.158;2024-01-07T10:00:33;2.70;99.90
52869;DHT22;39100;53.480;6.158;2024-01-07T10:02:59;2.80;99.90
52869;DHT22;39100;53.480;6.158;2024-01-07T10:05:25;2.80;99.90
52869;DHT22;39100;53.480;6.158;2024-01-07T10:07:50;3.00;99.90
52869;DHT22;39100;53.480;6.158;2024-01-07T10:10:19;3.00;99.90
52869;DHT22;39100;53.480;6.158;2024-01-07T10:12:46;3.10;99.90
52869;DHT22;39100;53.480;6.158;2024-01-07T10:15:12;3.20;99.90
52869;DHT22;39100;53.480;6.158;2024-01-07T10:17:39;3.10;99.90
52869;DHT22;39100;53.480;6.158;2024-01-07T10:20:05;3.20;99.90
52869;DHT22;39100;53.480;6.158;2024-01-07T10:22:36;3.30;99.90
52869;DHT22;39100;53.480;6.158;2024-01-07T10:25:02;3.50;99.90
52869;DHT22;39100;53.480;6.158;2024-01-07T10:27:27;3.60;99.90
52869;DHT22;39100;53.480;6.158;2024-01-07T10:29:53;3.70;99.90
52869;DHT22;39100;53.480;6.158;2024-01-07T10:32:21;3.70;99.90
52869;DHT22;39100;53.480;6.158;2024-01-07T10:34:47;3.70;99.90
52869;DHT22;39100;53.480;6.158;2024-01-07T10:37:14;3.90;99.90
52869;DHT22;39100;53.480;6.158;2024-01-07T10:39:39;3.90;99.90
52869;DHT22;39100;53.480;6.158;2024-01-07T10:42:06;3.80;99.90
52869;DHT22;39100;53.480;6.158;2024-01-07T10:44:32;3.80;99.90
52869;DHT22;39100;53.480;6.158;2024-01-07T10:46:59;3.70;99.90
52869;DHT22;39100;53.480;6.158;2024-01-07T10:49:28;3.60;99.90
52869;DHT22;39100;53.480;6.158;2024-01-07T10:52:04;3.40;99.90
52869;DHT22;39100;53.480;6.158;2024-01-07T10:54:32;3.30;99.90
52869;DHT22;39100;53.480;6.158;2024-01-07T10:57:46;3.30;99.90
52869;DHT22;39100;53.480;6.158;2024-01-07T10:59:45;3.20;99.90
52869;DHT22;39100;53.480;6.158;2024-01-07T11:02:12;3.30;99.90
52869;DHT22;39100;53.480;6.158;2024-01-07T11:05:01;3.30;99.90
52869;DHT22;39100;53.480;6.158;2024-01-07T11:07:35;3.30;99.90
52869;DHT22;39100;53.480;6.158;2024-01-07T11:10:20;3.50;99.90
52869;DHT22;39100;53.480;6.158;2024-01-07T11:12:55;3.60;99.90
52869;DHT22;39100;53.480;6.158;2024-01-07T11:18:19;3.70;99.90
52869;DHT22;39100;53.480;6.158;2024-01-07T11:20:46;3.70;99.90
52869;DHT22;39100;53.480;6.158;2024-01-07T11:23:32;3.80;99.90
52869;DHT22;39100;53.480;6.158;2024-01-07T11:26:01;3.80;99.90
52869;DHT22;39100;53.480;6.158;2024-01-07T11:28:47;3.70;99.90
52869;DHT22;39100;53.480;6.158;2024-01-07T11:31:14;3.80;99.90
52869;DHT22;39100;53.480;6.158;2024-01-07T11:33:48;3.90;99.90
52869;DHT22;39100;53.480;6.158;2024-01-07T11:36:15;4.00;99.90
52869;DHT22;39100;53.480;6.158;2024-01-07T11:38:45;4.30;99.90
52869;DHT22;39100;53.480;6.158;2024-01-07T11:41:13;4.60;99.90
52869;DHT22;39100;53.480;6.158;2024-01-07T11:43:58;4.90;99.90
52869;DHT22;39100;53.480;6.158;2024-01-07T11:46:27;5.40;99.90
52869;DHT22;39100;53.480;6.158;2024-01-07T11:48:55;5.90;99.90
52869;DHT22;39100;53.480;6.158;2024-01-07T11:51:30;6.20;99.90
52869;DHT22;39100;53.480;6.158;2024-01-07T11:54:00;6.50;99.90
52869;DHT22;39100;53.480;6.158;2024-01-07T11:56:27;6.70;99.90
52869;DHT22;39100;53.480;6.158;2024-01-07T11:58:53;6.80;99.90
52869;DHT22;39100;53.480;6.158;2024-01-07T12:01:18;6.60;99.90
52869;DHT22;39100;53.480;6.158;2024-01-07T12:03:44;6.40;99.90
52869;DHT22;39100;53.480;6.158;2024-01-07T12:06:10;6.30;99.90
52869;DHT22;39100;53.480;6.158;2024-01-07T12:08:40;6.00;99.90
52869;DHT22;39100;53.480;6.158;2024-01-07T12:11:05;5.80;99.90
52869;DHT22;39100;53.480;6.158;2024-01-07T12:13:31;5.60;99.90
52869;DHT22;39100;53.480;6.158;2024-01-07T12:15:57;5.40;99.90
52869;DHT22;39100;53.480;6.158;2024-01-07T12:18:23;5.40;99.90
52869;DHT22;39100;53.480;6.158;2024-01-07T12:20:58;5.10;99.90
52869;DHT22;39100;53.480;6.158;2024-01-07T12:23:24;4.90;99.90
52869;DHT22;39100;53.480;6.158;2024-01-07T12:25:51;4.90;99.90
52869;DHT22;39100;53.480;6.158;2024-01-07T12:28:17;5.00;99.90
52869;DHT22;39100;53.480;6.158;2024-01-07T12:30:48;5.00;99.90
52869;DHT22;39100;53.480;6.158;2024-01-07T12:33:20;5.10;99.90
52869;DHT22;39100;53.480;6.158;2024-01-07T12:35:46;5.30;99.90
52869;DHT22;39100;53.480;6.158;2024-01-07T12:38:12;5.60;99.90
52869;DHT22;39100;53.480;6.158;2024-01-07T12:40:38;5.80;99.90
52869;DHT22;39100;53.480;6.158;2024-01-07T12:43:05;5.90;99.90
52869;DHT22;39100;53.480;6.158;2024-01-07T12:45:32;6.10;99.90
52869;DHT22;39100;53.480;6.158;2024-01-07T12:47:58;6.00;99.90
52869;DHT22;39100;53.480;6.158;2024-01-07T12:50:27;5.90;99.90
52869;DHT22;39100;53.480;6.158;2024-01-07T12:52:55;5.90;99.90
52869;DHT22;39100;53.480;6.158;2024-01-07T12:55:22;5.80;99.90
52869;DHT22;39100;53.480;6.158;2024-01-07T12:57:47;5.60;99.90
52869;DHT22;39100;53.480;6.158;2024-01-07T13:00:13;5.50;99.90
52869;DHT22;39100;53.480;6.158;2024-01-07T13:02:39;5.30;99.90
52869;DHT22;39100;53.480;6.158;2024-01-07T13:05:05;5.20;99.90
52869;DHT22;39100;53.480;6.158;2024-01-07T13:07:32;5.20;99.90
52869;DHT22;39100;53.480;6.158;2024-01-07T13:09:57;5.10;99.90
52869;DHT22;39100;53.480;6.158;2024-01-07T13:12:23;5.10;99.90
52869;DHT22;39100;53.480;6.158;2024-01-07T13:14:48;5.20;99.90
52869;DHT22;39100;53.480;6.158;2024-01-07T13:17:15;5.20;99.90
52869;DHT22;39100;53.480;6.158;2024-01-07T13:19:40;5.30;99.90
52869;DHT22;39100;53.480;6.158;2024-01-07T13:22:07;5.30;99.90
52869;DHT22;39100;53.480;6.158;2024-01-07T13:24:33;5.50;99.90
52869;DHT22;39100;53.480;6.158;2024-01-07T13:26:58;5.40;99.90
52869;DHT22;39100;53.480;6.158;2024-01-07T13:29:24;5.30;99.90
52869;DHT22;39100;53.480;6.158;2024-01-07T13:31:50;5.10;99.90
52869;DHT22;39100;53.480;6.158;2024-01-07T13:34:16;4.80;99.90
52869;DHT22;39100;53.480;6.158;2024-01-07T13:36:43;4.70;99.90
52869;DHT22;39100;53.480;6.158;2024-01-07T13:39:09;4.60;99.90
52869;DHT22;39100;53.480;6.158;2024-01-07T13:41:35;4.50;99.90
52869;DHT22;39100;53.480;6.158;2024-01-07T13:44:01;4.40;99.90
52869;DHT22;39100;53.480;6.158;2024-01-07T13:46:28;4.50;99.90
52869;DHT22;39100;53.480;6.158;2024-01-07T13:48:54;4.50;99.90
52869;DHT22;39100;53.480;6.158;2024-01-07T13:51:22;4.50;99.90
52869;DHT22;39100;53.480;6.158;2024-01-07T13:53:48;4.50;99.90
52869;DHT22;39100;53.480;6.158;2024-01-07T13:56:13;4.40;99.90
52869;DHT22;39100;53.480;6.158;2024-01-07T13:58:39;4.30;99.90
52869;DHT22;39100;53.480;6.158;2024-01-07T14:01:05;4.30;99.90
52869;DHT22;39100;53.480;6.158;2024-01-07T14:03:33;4.30;99.90
52869;DHT22;39100;53.480;6.158;2024-01-07T14:05:59;4.30;99.90
52869;DHT22;39100;53.480;6.158;2024-01-07T14:08:28;4.20;99.90
52869;DHT22;39100;53.480;6.158;2024-01-07T14:10:54;4.00;99.90
52869;DHT22;39100;53.480;6.158;2024-01-07T14:13:19;4.00;99.90
52869;DHT22;39100;53.480;6.158;2024-01-07T14:15:45;4.00;99.90
52869;DHT22;39100;53.480;6.158;2024-01-07T14:18:10;3.90;99.90
52869;DHT22;39100;53.480;6.158;2024-01-07T14:20:41;4.00;99.90
52869;DHT22;39100;53.480;6.158;2024-01-07T14:23:07;4.10;99.90
52869;DHT22;39100;53.480;6.158;2024-01-07T14:25:32;4.00;99.90
52869;DHT22;39100;53.480;6.158;2024-01-07T14:27:58;3.90;99.90
52869;DHT22;39100;53.480;6.158;2024-01-07T14:30:24;3.90;99.90
52869;DHT22;39100;53.480;6.158;2024-01-07T14:32:49;3.90;99.90
52869;DHT22;39100;53.480;6.158;2024-01-07T14:35:16;3.90;99.90
52869;DHT22;39100;53.480;6.158;2024-01-07T14:37:41;3.80;99.90
52869;DHT22;39100;53.480;6.158;2024-01-07T14:40:07;3.70;99.90
52869;DHT22;39100;53.480;6.158;2024-01-07T14:42:33;3.60;99.90
52869;DHT22;39100;53.480;6.158;2024-01-07T14:44:59;3.60;99.90
52869;DHT22;39100;53.480;6.158;2024-01-07T14:47:24;3.50;99.90
52869;DHT22;39100;53.480;6.158;2024-01-07T14:49:50;3.40;99.90
52869;DHT22;39100;53.480;6.158;2024-01-07T14:52:15;3.40;99.90
52869;DHT22;39100;53.480;6.158;2024-01-07T14:54:41;3.40;99.90
52869;DHT22;39100;53.480;6.158;2024-01-07T14:57:06;3.40;99.90
52869;DHT22;39100;53.480;6.158;2024-01-07T14:59:34;3.30;99.90
52869;DHT22;39100;53.480;6.158;2024-01-07T15:02:01;3.30;99.90
52869;DHT22;39100;53.480;6.158;2024-01-07T15:04:27;3.20;99.90
52869;DHT22;39100;53.480;6.158;2024-01-07T15:06:53;3.10;99.90
52869;DHT22;39100;53.480;6.158;2024-01-07T15:09:18;3.20;99.90
52869;DHT22;39100;53.480;6.158;2024-01-07T15:11:46;3.10;99.90
52869;DHT22;39100;53.480;6.158;2024-01-07T15:14:14;3.10;99.90
52869;DHT22;39100;53.480;6.158;2024-01-07T15:16:39;3.00;99.90
52869;DHT22;39100;53.480;6.158;2024-01-07T15:19:05;3.00;99.90
52869;DHT22;39100;53.480;6.158;2024-01-07T15:21:30;3.00;99.90
52869;DHT22;39100;53.480;6.158;2024-01-07T15:23:56;3.00;99.90
52869;DHT22;39100;53.480;6.158;2024-01-07T15:26:22;2.90;99.90
52869;DHT22;39100;53.480;6.158;2024-01-07T15:28:47;2.90;99.90
52869;DHT22;39100;53.480;6.158;2024-01-07T15:31:13;2.90;99.90
52869;DHT22;39100;53.480;6.158;2024-01-07T15:33:38;2.80;99.90
52869;DHT22;39100;53.480;6.158;2024-01-07T15:36:04;2.80;99.90
52869;DHT22;39100;53.480;6.158;2024-01-07T15:38:30;2.80;99.90
52869;DHT22;39100;53.480;6.158;2024-01-07T15:40:55;2.80;99.90
52869;DHT22;39100;53.480;6.158;2024-01-07T15:43:21;2.80;99.90